Terminal Aerodrome Forecast
Issued by NWS Charleston, WV

Current Version | Previous Version | Text Only | Print | Product List | Glossary Off
Versions: 1 2 3 4 5 6 7 8 9 10 11 12 13 14 15 16 17 18 19 20 21 22 23 24 25 26 27 28 29 30 31 32 33 34

000
FTUS41 KRLX 281400 AAA
TAFCRW
TAF AMD
KCRW 281436Z 2815/2912 27009KT P6SM OVC180
      TEMPO 2815/2818 SCT180
     FM281800 29010G16KT P6SM BKN045
     FM290000 31006KT P6SM BKN080
     FM290500 00000KT 5SM BR SCT080
     FM290700 00000KT 2SM BR SCT040
     FM290800 00000KT 1/4SM FG VV001=

USA.gov is the U.S. government's official web portal to all federal, state and local government web resources and services.